Time;durP1;ratioP1;P1;durP2;ratioP2;P2;SDS_P1;SDS_P2;PMS_P1;PMS_P2;Temp;Humidity;BMP_temperature;BMP_pressure;BME280_temperature;BME280_humidity;BME280_pressure;Samples;Min_cycle;Max_cycle;Signal;HPM_P1;HPM_P2
2023/07/05 04:01:43;;;;;;;;;;;19.60;99.90;;;;;;6823871;23;2234;-77
2023/07/05 04:04:45;;;;;;;;;;;19.60;99.90;;;;;;6129430;29;1118;-77
2023/07/05 04:07:47;;;;;;;;;;;19.60;99.90;;;;;;6152252;29;1295;-76
2023/07/05 04:10:49;;;;;;;;;;;19.70;99.90;;;;;;6152830;29;1993;-76
2023/07/05 04:13:52;;;;;;;;;;;19.60;99.90;;;;;;6152872;29;1038;-77
2023/07/05 04:16:55;;;;;;;;;;;19.60;99.90;;;;;;6152636;29;1131;-77
2023/07/05 04:19:57;;;;;;;;;;;19.60;99.90;;;;;;6151707;29;1446;-81
2023/07/05 04:22:59;;;;;;;;;;;19.70;99.90;;;;;;6151823;29;1454;-81
2023/07/05 04:26:01;;;;;;;;;;;19.70;99.90;;;;;;6153023;29;1040;-81
2023/07/05 04:29:03;;;;;;;;;;;19.70;99.90;;;;;;6149719;29;1621;-79
2023/07/05 04:32:06;;;;;;;;;;;19.70;99.90;;;;;;6152632;29;1979;-79
2023/07/05 04:35:09;;;;;;;;;;;19.60;99.90;;;;;;6152590;29;1139;-79
2023/07/05 04:38:10;;;;;;;;;;;19.50;99.90;;;;;;6152569;29;1034;-79
2023/07/05 04:41:12;;;;;;;;;;;19.40;99.90;;;;;;6152385;28;1067;-79
2023/07/05 04:44:14;;;;;;;;;;;19.40;99.90;;;;;;6152445;29;1279;-80
2023/07/05 04:47:17;;;;;;;;;;;19.30;99.90;;;;;;6152514;29;1070;-79
2023/07/05 04:50:19;;;;;;;;;;;19.40;99.90;;;;;;6156673;28;1983;-78
2023/07/05 04:53:21;;;;;;;;;;;19.40;99.90;;;;;;6160439;28;1048;-78
2023/07/05 04:56:23;;;;;;;;;;;19.50;99.90;;;;;;6160263;29;1091;-79
2023/07/05 04:59:24;;;;;;;;;;;19.60;99.90;;;;;;6160340;28;1071;-80
2023/07/05 05:02:27;;;;;;;;;;;19.60;99.90;;;;;;6141153;29;2781;-79
2023/07/05 05:05:29;;;;;;;;;;;19.60;99.90;;;;;;6136301;29;1072;-78
2023/07/05 05:08:31;;;;;;;;;;;19.40;99.90;;;;;;6136276;29;1067;-78
2023/07/05 05:11:33;;;;;;;;;;;19.40;99.90;;;;;;6136302;29;1980;-78
2023/07/05 05:14:34;;;;;;;;;;;19.40;99.90;;;;;;6136020;29;1088;-78
2023/07/05 05:17:37;;;;;;;;;;;19.30;99.90;;;;;;6136420;29;1090;-78
2023/07/05 05:20:40;;;;;;;;;;;19.40;99.90;;;;;;6135996;29;1127;-78
2023/07/05 05:23:41;;;;;;;;;;;19.40;99.90;;;;;;6136373;29;1027;-79
2023/07/05 05:26:43;;;;;;;;;;;19.50;99.90;;;;;;6136221;29;1047;-78
2023/07/05 05:29:45;;;;;;;;;;;19.50;99.90;;;;;;6136088;29;1902;-79
2023/07/05 05:32:48;;;;;;;;;;;19.60;99.90;;;;;;6136168;29;1965;-78
2023/07/05 05:35:50;;;;;;;;;;;19.60;99.90;;;;;;6135805;29;1076;-78
2023/07/05 05:38:52;;;;;;;;;;;19.70;99.90;;;;;;6136137;29;1086;-78
2023/07/05 05:41:54;;;;;;;;;;;19.70;99.90;;;;;;6135835;29;1055;-78
2023/07/05 05:44:55;;;;;;;;;;;19.80;99.90;;;;;;6136178;29;1019;-79
2023/07/05 05:47:58;;;;;;;;;;;19.90;99.90;;;;;;6135854;29;1086;-78
2023/07/05 05:51:00;;;;;;;;;;;19.90;99.90;;;;;;6136084;29;2013;-78
2023/07/05 05:54:02;;;;;;;;;;;20.00;99.90;;;;;;6155317;28;1579;-78
2023/07/05 05:57:04;;;;;;;;;;;20.00;99.90;;;;;;6159650;29;1042;-78
2023/07/05 06:00:09;;;;;;;;;;;20.10;99.90;;;;;;6159383;28;1294;-77
2023/07/05 06:03:12;;;;;;;;;;;20.10;99.90;;;;;;6154549;29;1273;-78
2023/07/05 06:06:14;;;;;;;;;;;20.20;99.90;;;;;;6155775;28;1052;-78
2023/07/05 06:09:15;;;;;;;;;;;20.20;99.90;;;;;;6155299;29;1017;-78
2023/07/05 06:12:17;;;;;;;;;;;20.30;99.90;;;;;;6155486;29;1915;-78
2023/07/05 06:15:19;;;;;;;;;;;20.30;99.90;;;;;;6155201;29;1039;-78
2023/07/05 06:18:22;;;;;;;;;;;20.40;99.90;;;;;;6155332;29;1084;-78
2023/07/05 06:21:24;;;;;;;;;;;20.50;99.90;;;;;;6155121;29;1090;-77
2023/07/05 06:24:25;;;;;;;;;;;20.60;99.90;;;;;;6155219;29;1497;-79
2023/07/05 06:27:27;;;;;;;;;;;20.60;99.90;;;;;;6155053;29;1044;-79
2023/07/05 06:30:29;;;;;;;;;;;20.60;99.90;;;;;;6154970;28;1895;-79
2023/07/05 06:33:32;;;;;;;;;;;20.70;99.90;;;;;;6154827;28;1417;-79
2023/07/05 06:36:34;;;;;;;;;;;20.60;99.90;;;;;;6154560;29;1527;-79
2023/07/05 06:39:36;;;;;;;;;;;20.70;99.90;;;;;;6154816;28;1085;-79
2023/07/05 06:42:38;;;;;;;;;;;20.70;99.50;;;;;;6154504;29;1086;-79
2023/07/05 06:45:40;;;;;;;;;;;20.70;99.50;;;;;;6154662;29;1095;-79
2023/07/05 06:48:43;;;;;;;;;;;20.70;99.80;;;;;;6154552;29;1098;-79
2023/07/05 06:51:45;;;;;;;;;;;20.90;99.00;;;;;;6154562;28;1962;-79
2023/07/05 06:54:46;;;;;;;;;;;20.90;99.00;;;;;;6154478;28;1091;-79
2023/07/05 06:57:48;;;;;;;;;;;21.00;99.00;;;;;;6154510;29;1101;-79
2023/07/05 07:00:51;;;;;;;;;;;21.00;99.50;;;;;;6148951;29;2773;-79
2023/07/05 07:03:54;;;;;;;;;;;20.90;99.80;;;;;;6130706;29;1079;-79
2023/07/05 07:06:56;;;;;;;;;;;20.90;99.90;;;;;;6130362;29;1032;-79
2023/07/05 07:09:57;;;;;;;;;;;20.90;99.90;;;;;;6130154;29;1096;-79
2023/07/05 07:12:59;;;;;;;;;;;20.80;99.90;;;;;;6130037;29;1989;-79
2023/07/05 07:16:02;;;;;;;;;;;20.80;99.90;;;;;;6130244;29;1109;-79
2023/07/05 07:19:05;;;;;;;;;;;20.80;99.90;;;;;;6130207;29;1000;-79
2023/07/05 07:22:07;;;;;;;;;;;20.70;99.90;;;;;;6129946;29;1078;-79
2023/07/05 07:25:09;;;;;;;;;;;20.70;99.90;;;;;;6129827;29;1056;-80
2023/07/05 07:28:11;;;;;;;;;;;20.60;99.90;;;;;;6129700;29;1097;-79
2023/07/05 07:31:14;;;;;;;;;;;20.60;99.90;;;;;;6130117;29;1982;-79
2023/07/05 07:34:17;;;;;;;;;;;20.50;99.90;;;;;;6129703;29;1086;-79
2023/07/05 07:37:18;;;;;;;;;;;20.50;99.90;;;;;;6129462;29;1956;-79
2023/07/05 07:40:20;;;;;;;;;;;20.40;99.90;;;;;;6129494;29;1020;-79
2023/07/05 07:43:22;;;;;;;;;;;20.40;99.90;;;;;;6129420;29;1302;-79
2023/07/05 07:46:25;;;;;;;;;;;20.40;99.90;;;;;;6129569;29;1036;-79
2023/07/05 07:49:28;;;;;;;;;;;20.20;99.90;;;;;;6129595;29;1039;-79
2023/07/05 07:52:30;;;;;;;;;;;19.80;99.90;;;;;;6129483;29;1910;-79
2023/07/05 07:55:32;;;;;;;;;;;19.60;99.90;;;;;;6129475;29;1121;-79
2023/07/05 07:58:33;;;;;;;;;;;19.40;99.90;;;;;;6129502;29;1047;-79
2023/07/05 08:01:37;;;;;;;;;;;19.40;99.90;;;;;;6129067;29;1282;-78
2023/07/05 08:04:44;;;;;;;;;;;19.30;99.90;;;;;;6129426;29;1033;-79
2023/07/05 08:07:46;;;;;;;;;;;19.30;99.90;;;;;;6129263;29;1048;-79
2023/07/05 08:10:48;;;;;;;;;;;19.30;99.90;;;;;;6129255;29;1899;-79
2023/07/05 08:13:50;;;;;;;;;;;19.00;99.90;;;;;;6129185;29;1043;-78
2023/07/05 08:16:52;;;;;;;;;;;19.10;99.90;;;;;;6129133;29;1027;-79
2023/07/05 08:19:55;;;;;;;;;;;19.10;99.90;;;;;;6129112;29;1035;-78
2023/07/05 08:22:57;;;;;;;;;;;19.10;99.90;;;;;;6129045;29;1087;-78
2023/07/05 08:26:01;;;;;;;;;;;18.90;99.90;;;;;;6128534;29;1076;-79
2023/07/05 08:29:03;;;;;;;;;;;18.90;99.90;;;;;;6129127;29;1062;-78
2023/07/05 08:32:05;;;;;;;;;;;18.70;99.90;;;;;;6128791;29;1981;-79
2023/07/05 08:35:09;;;;;;;;;;;18.70;99.90;;;;;;6128707;29;1042;-78
2023/07/05 08:38:11;;;;;;;;;;;18.60;99.90;;;;;;6128888;29;1043;-78
2023/07/05 08:41:17;;;;;;;;;;;18.50;99.90;;;;;;6128712;29;976;-78
2023/07/05 08:44:22;;;;;;;;;;;18.50;99.90;;;;;;6128708;29;1139;-79
2023/07/05 08:47:28;;;;;;;;;;;18.60;99.90;;;;;;6128667;29;1007;-79
2023/07/05 08:50:34;;;;;;;;;;;18.60;99.90;;;;;;6128887;29;1898;-78
2023/07/05 08:53:47;;;;;;;;;;;18.70;99.90;;;;;;6128511;29;1237;-78
2023/07/05 08:56:51;;;;;;;;;;;18.70;99.90;;;;;;6128685;29;1084;-79
2023/07/05 08:59:57;;;;;;;;;;;18.80;99.90;;;;;;6128458;29;1038;-78
2023/07/05 09:02:59;;;;;;;;;;;18.70;99.90;;;;;;6128204;29;2179;-79
2023/07/05 09:06:10;;;;;;;;;;;18.80;99.90;;;;;;6128483;29;1035;-78
2023/07/05 09:09:21;;;;;;;;;;;18.70;99.90;;;;;;6128924;29;2705;-79
2023/07/05 09:12:27;;;;;;;;;;;18.70;99.90;;;;;;6128471;29;1914;-78
2023/07/05 09:15:32;;;;;;;;;;;18.80;99.90;;;;;;6128501;29;1080;-78
2023/07/05 09:18:39;;;;;;;;;;;18.90;99.90;;;;;;6128697;29;1086;-78
2023/07/05 09:21:45;;;;;;;;;;;19.10;99.90;;;;;;6128559;29;1018;-79
2023/07/05 09:24:47;;;;;;;;;;;19.10;99.90;;;;;;6128359;29;1093;-78
2023/07/05 09:27:52;;;;;;;;;;;19.00;99.90;;;;;;6128341;29;1060;-78
2023/07/05 09:30:54;;;;;;;;;;;19.00;99.90;;;;;;6128141;29;1903;-78
2023/07/05 09:34:15;;;;;;;;;;;19.10;99.90;;;;;;6128358;29;1056;-78
2023/07/05 09:37:20;;;;;;;;;;;19.10;99.90;;;;;;6130485;29;1004;-78
2023/07/05 09:40:25;;;;;;;;;;;19.20;99.90;;;;;;6133032;29;1106;-79
2023/07/05 09:43:29;;;;;;;;;;;19.20;99.90;;;;;;6132457;29;1019;-78
2023/07/05 09:46:34;;;;;;;;;;;19.30;99.90;;;;;;6132581;29;1099;-78
2023/07/05 09:49:35;;;;;;;;;;;19.30;99.90;;;;;;6132320;29;1027;-78
2023/07/05 09:52:39;;;;;;;;;;;19.40;99.90;;;;;;6132489;29;1900;-79
2023/07/05 09:56:02;;;;;;;;;;;19.50;99.90;;;;;;6132229;29;1016;-79
2023/07/05 09:59:09;;;;;;;;;;;19.70;99.90;;;;;;6132233;29;1035;-79
2023/07/05 10:02:19;;;;;;;;;;;19.70;99.90;;;;;;6131679;29;1301;-79
2023/07/05 10:05:26;;;;;;;;;;;19.70;99.90;;;;;;6131975;29;1086;-79
2023/07/05 10:08:29;;;;;;;;;;;19.70;99.90;;;;;;6131774;29;1067;-79
2023/07/05 10:11:33;;;;;;;;;;;19.80;99.90;;;;;;6131827;29;1899;-79
2023/07/05 10:14:35;;;;;;;;;;;19.90;99.90;;;;;;6131561;29;1097;-78
2023/07/05 10:17:42;;;;;;;;;;;19.90;99.90;;;;;;6131457;29;1140;-79
2023/07/05 10:20:43;;;;;;;;;;;19.80;99.90;;;;;;6131515;29;1040;-79
2023/07/05 10:23:48;;;;;;;;;;;19.90;99.90;;;;;;6131677;29;1051;-79
2023/07/05 10:26:51;;;;;;;;;;;20.00;99.90;;;;;;6131474;29;1032;-79
2023/07/05 10:30:00;;;;;;;;;;;20.10;99.90;;;;;;6131200;29;1136;-79
2023/07/05 10:33:10;;;;;;;;;;;20.10;99.90;;;;;;6131300;29;1902;-79
2023/07/05 10:36:14;;;;;;;;;;;20.20;99.90;;;;;;6131115;29;2153;-79
2023/07/05 10:39:22;;;;;;;;;;;20.40;99.90;;;;;;6131194;29;1024;-79
2023/07/05 10:42:25;;;;;;;;;;;20.40;99.90;;;;;;6131179;29;1020;-79
2023/07/05 10:45:34;;;;;;;;;;;20.50;99.90;;;;;;6131002;29;1085;-78
2023/07/05 10:48:41;;;;;;;;;;;20.60;99.90;;;;;;6130556;29;1063;-79
2023/07/05 10:51:47;;;;;;;;;;;20.70;99.90;;;;;;6130830;29;1895;-79
2023/07/05 10:55:03;;;;;;;;;;;20.80;98.60;;;;;;6130601;29;1971;-79
2023/07/05 10:58:09;;;;;;;;;;;20.90;98.80;;;;;;6130787;29;1159;-79
2023/07/05 11:01:14;;;;;;;;;;;21.00;98.10;;;;;;6130786;29;1136;-79
2023/07/05 11:04:19;;;;;;;;;;;21.10;96.80;;;;;;6130842;29;1110;-79
2023/07/05 11:07:21;;;;;;;;;;;21.00;94.90;;;;;;6130449;29;1032;-78
2023/07/05 11:10:25;;;;;;;;;;;21.20;96.10;;;;;;6130496;29;1076;-80
2023/07/05 11:13:29;;;;;;;;;;;21.30;94.80;;;;;;6130118;29;1981;-79
2023/07/05 11:16:32;;;;;;;;;;;21.20;94.70;;;;;;6130340;29;1047;-80
2023/07/05 11:19:33;;;;;;;;;;;21.20;94.30;;;;;;6129962;29;1155;-79
2023/07/05 11:22:40;;;;;;;;;;;21.30;92.70;;;;;;6130030;29;1027;-79
2023/07/05 11:25:59;;;;;;;;;;;21.30;91.40;;;;;;6130013;29;1222;-79
2023/07/05 11:29:02;;;;;;;;;;;21.40;90.00;;;;;;6130001;29;1083;-79
2023/07/05 11:32:08;;;;;;;;;;;21.40;83.90;;;;;;6129895;29;1997;-80
2023/07/05 11:35:10;;;;;;;;;;;21.40;78.10;;;;;;6129668;29;1075;-79
2023/07/05 11:39:04;;;;;;;;;;;21.50;75.80;;;;;;6129672;29;1026;-79
2023/07/05 11:42:40;;;;;;;;;;;21.40;73.20;;;;;;6129605;29;1047;-80
2023/07/05 11:45:46;;;;;;;;;;;21.50;71.10;;;;;;6129899;29;1179;-80
2023/07/05 11:48:47;;;;;;;;;;;21.60;71.60;;;;;;6129613;29;1063;-79
2023/07/05 11:51:51;;;;;;;;;;;21.80;73.60;;;;;;6129749;29;1902;-80
2023/07/05 11:55:00;;;;;;;;;;;21.90;70.90;;;;;;6129351;29;1039;-79
2023/07/05 11:58:08;;;;;;;;;;;21.90;65.50;;;;;;6129274;29;1958;-80
2023/07/05 12:01:15;;;;;;;;;;;21.90;64.80;;;;;;6128556;29;1290;-79
2023/07/05 12:04:21;;;;;;;;;;;22.10;65.80;;;;;;6129480;29;992;-78
2023/07/05 12:07:24;;;;;;;;;;;22.20;65.80;;;;;;6128980;29;1246;-77
2023/07/05 12:10:28;;;;;;;;;;;22.30;65.20;;;;;;6128452;29;1015;-80
2023/07/05 12:13:34;;;;;;;;;;;22.40;66.20;;;;;;6128440;29;1972;-79
2023/07/05 12:16:36;;;;;;;;;;;22.30;64.40;;;;;;6129247;29;1110;-80
2023/07/05 12:19:38;;;;;;;;;;;22.30;62.30;;;;;;6129133;29;996;-79
2023/07/05 12:22:40;;;;;;;;;;;22.30;63.10;;;;;;6128816;29;1020;-80
2023/07/05 12:25:42;;;;;;;;;;;22.30;62.50;;;;;;6128901;29;1024;-80
2023/07/05 12:28:47;;;;;;;;;;;22.40;61.40;;;;;;6128695;29;1875;-79
2023/07/05 12:31:51;;;;;;;;;;;22.50;61.70;;;;;;6128706;29;1902;-79
2023/07/05 12:35:16;;;;;;;;;;;22.50;60.90;;;;;;6128350;29;1068;-79
2023/07/05 12:38:18;;;;;;;;;;;22.60;61.60;;;;;;6128679;29;1111;-80
2023/07/05 12:41:23;;;;;;;;;;;22.90;61.90;;;;;;6128683;29;1077;-79
2023/07/05 12:44:26;;;;;;;;;;;23.00;61.10;;;;;;6128502;29;1181;-79
2023/07/05 12:47:28;;;;;;;;;;;23.00;59.90;;;;;;6128645;29;1193;-79
2023/07/05 12:50:29;;;;;;;;;;;23.10;60.00;;;;;;6128446;29;1104;-79
2023/07/05 12:53:31;;;;;;;;;;;23.20;61.70;;;;;;6128775;29;1906;-79
2023/07/05 12:56:36;;;;;;;;;;;23.40;60.60;;;;;;6128331;29;1156;-79
2023/07/05 12:59:41;;;;;;;;;;;23.50;60.80;;;;;;6128190;29;1113;-79
2023/07/05 13:02:44;;;;;;;;;;;23.70;60.00;;;;;;6128066;29;1136;-79
2023/07/05 13:05:46;;;;;;;;;;;23.70;58.60;;;;;;6128099;29;1085;-79
2023/07/05 13:08:48;;;;;;;;;;;23.80;59.10;;;;;;6128232;29;1097;-79
2023/07/05 13:11:57;;;;;;;;;;;23.90;59.20;;;;;;6131295;29;1902;-79
2023/07/05 13:15:04;;;;;;;;;;;23.90;57.50;;;;;;6133116;29;1004;-79
2023/07/05 13:18:26;;;;;;;;;;;23.90;58.60;;;;;;6133117;29;2069;-78
2023/07/05 13:21:37;;;;;;;;;;;24.00;57.70;;;;;;6133017;29;1082;-79
2023/07/05 13:24:39;;;;;;;;;;;24.00;56.30;;;;;;6132696;29;1031;-79
2023/07/05 13:27:40;;;;;;;;;;;23.80;53.50;;;;;;6132399;29;1831;-79
2023/07/05 13:30:46;;;;;;;;;;;24.00;55.60;;;;;;6132457;29;968;-78
2023/07/05 13:33:48;;;;;;;;;;;24.30;56.60;;;;;;6132486;29;1983;-79
2023/07/05 13:36:52;;;;;;;;;;;24.30;52.70;;;;;;6132364;29;1059;-78
2023/07/05 13:39:55;;;;;;;;;;;24.30;53.00;;;;;;6132586;29;1023;-78
2023/07/05 13:42:57;;;;;;;;;;;24.50;52.90;;;;;;6132309;29;980;-79
2023/07/05 13:46:01;;;;;;;;;;;24.50;51.10;;;;;;6132352;29;1075;-78
2023/07/05 13:49:03;;;;;;;;;;;24.40;52.90;;;;;;6132212;29;1039;-79
2023/07/05 13:52:05;;;;;;;;;;;24.60;52.70;;;;;;6132215;29;1903;-78
2023/07/05 13:55:07;;;;;;;;;;;24.70;53.00;;;;;;6132117;29;1079;-79
2023/07/05 13:58:11;;;;;;;;;;;24.80;52.90;;;;;;6131997;29;1089;-79
2023/07/05 14:01:17;;;;;;;;;;;24.80;52.20;;;;;;6131818;29;1145;-78
2023/07/05 14:04:18;;;;;;;;;;;24.80;52.30;;;;;;6131936;29;951;-78
2023/07/05 14:07:21;;;;;;;;;;;24.90;51.10;;;;;;6132048;29;1187;-79
2023/07/05 14:10:24;;;;;;;;;;;25.00;50.90;;;;;;6131735;29;1039;-78
2023/07/05 14:13:25;;;;;;;;;;;25.00;51.30;;;;;;6131806;29;1906;-78
2023/07/05 14:16:29;;;;;;;;;;;25.10;52.00;;;;;;6131737;29;1101;-79
2023/07/05 14:19:30;;;;;;;;;;;25.30;51.60;;;;;;6131661;29;1137;-79
2023/07/05 14:22:32;;;;;;;;;;;25.50;51.30;;;;;;6130593;29;1067;-79
2023/07/05 14:25:39;;;;;;;;;;;25.70;50.30;;;;;;6131680;29;1904;-79
2023/07/05 14:28:41;;;;;;;;;;;26.00;50.10;;;;;;6131419;29;1089;-79
2023/07/05 14:31:44;;;;;;;;;;;26.30;49.80;;;;;;6131289;29;1079;-80
2023/07/05 14:34:47;;;;;;;;;;;26.30;48.70;;;;;;6131064;29;1981;-80
2023/07/05 14:37:49;;;;;;;;;;;26.20;45.80;;;;;;6131112;29;1037;-80
2023/07/05 14:40:51;;;;;;;;;;;26.00;46.80;;;;;;6130917;29;1076;-81
2023/07/05 14:43:53;;;;;;;;;;;26.10;46.60;;;;;;6130910;29;1038;-81
2023/07/05 14:46:56;;;;;;;;;;;26.00;46.70;;;;;;6131035;29;1103;-80
2023/07/05 14:49:58;;;;;;;;;;;26.10;46.30;;;;;;6130627;29;1027;-80
2023/07/05 14:53:02;;;;;;;;;;;26.00;43.80;;;;;;6130905;29;1984;-79
2023/07/05 14:56:04;;;;;;;;;;;25.80;45.30;;;;;;6133174;29;1403;-79
2023/07/05 14:59:06;;;;;;;;;;;25.90;45.40;;;;;;6153185;29;1451;-78
2023/07/05 15:02:14;;;;;;;;;;;26.20;45.40;;;;;;6150124;29;1469;-78
2023/07/05 15:05:18;;;;;;;;;;;25.90;45.60;;;;;;6143769;29;1617;-78
2023/07/05 15:08:20;;;;;;;;;;;25.90;45.50;;;;;;6144481;29;1509;-78
2023/07/05 15:11:22;;;;;;;;;;;25.70;45.70;;;;;;6151037;29;1071;-79
2023/07/05 15:14:23;;;;;;;;;;;25.50;46.40;;;;;;6150846;29;1899;-79
2023/07/05 15:17:26;;;;;;;;;;;25.60;45.70;;;;;;6149823;29;1410;-77
2023/07/05 15:20:28;;;;;;;;;;;25.80;46.40;;;;;;6150043;29;1478;-79
2023/07/05 15:23:30;;;;;;;;;;;25.90;46.80;;;;;;6148657;29;797;-78
2023/07/05 15:26:32;;;;;;;;;;;26.10;46.50;;;;;;6151016;29;1098;-77
2023/07/05 15:29:33;;;;;;;;;;;26.10;46.00;;;;;;6147184;29;1566;-78
2023/07/05 15:32:38;;;;;;;;;;;26.00;46.50;;;;;;6152940;28;1981;-78
2023/07/05 15:35:40;;;;;;;;;;;26.00;47.90;;;;;;6153349;28;1413;-78
2023/07/05 15:38:42;;;;;;;;;;;26.40;46.50;;;;;;6153334;29;1077;-78
2023/07/05 15:41:44;;;;;;;;;;;26.70;46.90;;;;;;6151910;29;1439;-77
2023/07/05 15:44:46;;;;;;;;;;;26.60;46.10;;;;;;6153179;29;1572;-78
2023/07/05 15:47:49;;;;;;;;;;;26.50;45.70;;;;;;6151357;29;1391;-79
2023/07/05 15:50:51;;;;;;;;;;;26.60;46.80;;;;;;6149038;28;2207;-78
2023/07/05 15:53:53;;;;;;;;;;;26.90;46.10;;;;;;6141114;28;2367;-78
2023/07/05 15:56:55;;;;;;;;;;;26.70;46.60;;;;;;6151160;28;1593;-78
2023/07/05 15:59:58;;;;;;;;;;;26.40;46.60;;;;;;6149672;29;2348;-78
2023/07/05 16:03:02;;;;;;;;;;;26.70;46.90;;;;;;6150723;29;1688;-78
2023/07/05 16:06:04;;;;;;;;;;;27.00;47.10;;;;;;6143077;29;2633;-78
2023/07/05 16:09:05;;;;;;;;;;;26.90;46.90;;;;;;6147475;29;2900;-78
2023/07/05 16:12:08;;;;;;;;;;;27.00;47.10;;;;;;6139242;29;2884;-78
2023/07/05 16:15:10;;;;;;;;;;;27.00;47.30;;;;;;6150616;28;1989;-78
2023/07/05 16:18:13;;;;;;;;;;;26.70;46.80;;;;;;6151641;29;2800;-78
2023/07/05 16:21:15;;;;;;;;;;;26.50;46.70;;;;;;6149268;29;1732;-78
2023/07/05 16:24:17;;;;;;;;;;;26.60;46.20;;;;;;6137941;29;3066;-78
2023/07/05 16:27:18;;;;;;;;;;;26.90;46.60;;;;;;6149870;29;2366;-78
2023/07/05 16:30:20;;;;;;;;;;;26.90;46.00;;;;;;6147821;28;3167;-79
2023/07/05 16:33:23;;;;;;;;;;;26.70;46.00;;;;;;6150848;28;2287;-79
2023/07/05 16:36:27;;;;;;;;;;;26.50;45.40;;;;;;6147577;29;1995;-78
2023/07/05 16:39:29;;;;;;;;;;;26.40;45.40;;;;;;6149142;29;1712;-79
2023/07/05 16:42:31;;;;;;;;;;;26.40;46.50;;;;;;6150818;29;1557;-79
2023/07/05 16:45:36;;;;;;;;;;;26.50;45.40;;;;;;6151768;28;1268;-78
2023/07/05 16:48:39;;;;;;;;;;;26.80;46.50;;;;;;6151211;29;1756;-71
2023/07/05 16:51:41;;;;;;;;;;;26.50;46.30;;;;;;6147321;29;2757;-71
2023/07/05 16:54:43;;;;;;;;;;;26.70;46.40;;;;;;6144516;29;2667;-71
2023/07/05 16:57:44;;;;;;;;;;;27.20;46.20;;;;;;6139145;28;3003;-71
2023/07/05 17:00:46;;;;;;;;;;;27.40;45.90;;;;;;6146938;29;2653;-72
2023/07/05 17:03:49;;;;;;;;;;;27.50;45.60;;;;;;6146173;28;2010;-72
2023/07/05 17:06:52;;;;;;;;;;;27.10;45.00;;;;;;6146347;29;1494;-73
2023/07/05 17:09:54;;;;;;;;;;;27.20;46.10;;;;;;6151741;29;1074;-73
2023/07/05 17:12:57;;;;;;;;;;;27.20;46.40;;;;;;6151766;29;1903;-72
2023/07/05 17:16:00;;;;;;;;;;;27.00;51.80;;;;;;6148473;29;3287;-79
2023/07/05 17:19:03;;;;;;;;;;;26.80;46.90;;;;;;6149368;29;2000;-78
2023/07/05 17:22:05;;;;;;;;;;;26.80;47.60;;;;;;6147272;29;2071;-78
2023/07/05 17:25:08;;;;;;;;;;;27.20;47.70;;;;;;6147225;28;1403;-79
2023/07/05 17:28:09;;;;;;;;;;;27.50;46.70;;;;;;6151537;29;1094;-78
2023/07/05 17:31:14;;;;;;;;;;;27.50;46.70;;;;;;6149319;29;1473;-78
2023/07/05 17:34:18;;;;;;;;;;;27.50;47.00;;;;;;6151200;29;2518;-78
2023/07/05 17:37:20;;;;;;;;;;;27.00;47.10;;;;;;6149637;29;1419;-78
2023/07/05 17:40:22;;;;;;;;;;;26.90;47.80;;;;;;6149963;28;1380;-78
2023/07/05 17:43:26;;;;;;;;;;;26.90;47.10;;;;;;6149487;29;1403;-78
2023/07/05 17:46:30;;;;;;;;;;;26.80;47.00;;;;;;6149099;29;1467;-79
2023/07/05 17:49:33;;;;;;;;;;;26.70;46.30;;;;;;6151440;29;1028;-78
2023/07/05 17:52:35;;;;;;;;;;;26.50;47.10;;;;;;6148121;29;1414;-79
2023/07/05 17:55:37;;;;;;;;;;;26.30;46.90;;;;;;6147372;28;1910;-78
2023/07/05 17:58:39;;;;;;;;;;;26.20;46.70;;;;;;6152807;28;1385;-77
2023/07/05 18:01:41;;;;;;;;;;;25.50;48.20;;;;;;6143980;28;1492;-78
2023/07/05 18:04:45;;;;;;;;;;;25.50;48.50;;;;;;6149826;29;1706;-78
2023/07/05 18:07:47;;;;;;;;;;;25.40;49.00;;;;;;6148867;29;2051;-78
2023/07/05 18:10:48;;;;;;;;;;;25.40;48.60;;;;;;6136855;29;1338;-78
2023/07/05 18:13:53;;;;;;;;;;;25.30;49.10;;;;;;6139334;29;1951;-80
2023/07/05 18:16:54;;;;;;;;;;;25.30;48.70;;;;;;6128533;29;1022;-79
2023/07/05 18:19:57;;;;;;;;;;;25.00;49.40;;;;;;6129105;29;1323;-78
2023/07/05 18:22:59;;;;;;;;;;;25.00;49.20;;;;;;6136434;29;1349;-78
2023/07/05 18:26:04;;;;;;;;;;;25.00;50.20;;;;;;6137769;29;2799;-78
2023/07/05 18:29:06;;;;;;;;;;;25.20;50.40;;;;;;6148552;28;2639;-79
2023/07/05 18:32:09;;;;;;;;;;;25.30;50.50;;;;;;6147027;28;2218;-79
2023/07/05 18:35:12;;;;;;;;;;;25.30;50.80;;;;;;6142380;29;1980;-78
2023/07/05 18:38:14;;;;;;;;;;;25.20;50.60;;;;;;6150390;28;1669;-79
2023/07/05 18:41:17;;;;;;;;;;;25.00;51.40;;;;;;6151281;29;1595;-78
2023/07/05 18:44:18;;;;;;;;;;;24.80;51.80;;;;;;6151441;28;2303;-78
2023/07/05 18:47:20;;;;;;;;;;;24.70;52.00;;;;;;6150283;28;1742;-71
2023/07/05 18:50:23;;;;;;;;;;;24.80;52.20;;;;;;6145818;29;1730;-73
2023/07/05 18:53:27;;;;;;;;;;;24.80;52.90;;;;;;6139609;29;1903;-71
2023/07/05 18:56:30;;;;;;;;;;;24.70;53.00;;;;;;6134676;28;1311;-71
2023/07/05 18:59:31;;;;;;;;;;;24.60;53.30;;;;;;6149931;29;1450;-71
2023/07/05 19:02:33;;;;;;;;;;;24.50;53.40;;;;;;6150674;29;1275;-71
2023/07/05 19:05:39;;;;;;;;;;;24.40;53.40;;;;;;6147553;29;1521;-71
2023/07/05 19:08:42;;;;;;;;;;;24.30;54.30;;;;;;6150989;28;1036;-71
2023/07/05 19:11:46;;;;;;;;;;;24.20;54.00;;;;;;6150249;28;1451;-71
2023/07/05 19:14:48;;;;;;;;;;;24.10;53.70;;;;;;6150756;28;1976;-71
2023/07/05 19:17:50;;;;;;;;;;;24.00;54.60;;;;;;6151119;29;1027;-71
2023/07/05 19:20:54;;;;;;;;;;;24.00;54.70;;;;;;6149921;29;1969;-71
2023/07/05 19:23:56;;;;;;;;;;;23.90;55.80;;;;;;6150504;29;1179;-71
2023/07/05 19:26:58;;;;;;;;;;;24.00;57.60;;;;;;6150095;29;1076;-72
2023/07/05 19:30:00;;;;;;;;;;;23.80;58.80;;;;;;6149099;29;1407;-71
2023/07/05 19:33:02;;;;;;;;;;;23.70;59.40;;;;;;6149559;29;1472;-71
2023/07/05 19:36:06;;;;;;;;;;;23.70;59.70;;;;;;6149528;28;1993;-72
2023/07/05 19:39:08;;;;;;;;;;;23.60;60.00;;;;;;6147284;29;2644;-72
2023/07/05 19:42:10;;;;;;;;;;;23.60;60.20;;;;;;6147933;29;2880;-73
2023/07/05 19:45:12;;;;;;;;;;;23.60;59.80;;;;;;6150067;29;2394;-71
2023/07/05 19:48:14;;;;;;;;;;;23.50;60.40;;;;;;6149889;28;1051;-71
2023/07/05 19:51:17;;;;;;;;;;;23.50;59.50;;;;;;6148004;28;1443;-71
2023/07/05 19:54:20;;;;;;;;;;;23.40;59.50;;;;;;6147668;29;1985;-71
2023/07/05 19:57:22;;;;;;;;;;;23.40;59.30;;;;;;6138196;29;1392;-72
2023/07/05 20:00:23;;;;;;;;;;;23.30;61.40;;;;;;6147707;29;1422;-71
2023/07/05 20:03:25;;;;;;;;;;;23.30;61.00;;;;;;6147465;28;1568;-72
2023/07/05 20:06:28;;;;;;;;;;;23.20;61.30;;;;;;6147640;29;1498;-74
2023/07/05 20:09:30;;;;;;;;;;;23.20;61.80;;;;;;6152692;29;1050;-74
2023/07/05 20:12:32;;;;;;;;;;;23.20;60.40;;;;;;6152302;29;1147;-74
2023/07/05 20:15:35;;;;;;;;;;;23.10;60.70;;;;;;6152284;29;1903;-85
2023/07/05 20:18:36;;;;;;;;;;;23.10;60.50;;;;;;6152579;29;1466;-89
2023/07/05 20:21:39;;;;;;;;;;;23.00;60.90;;;;;;6152531;28;1188;-86
2023/07/05 20:24:41;;;;;;;;;;;22.90;61.40;;;;;;6152891;29;1047;-84
2023/07/05 20:27:45;;;;;;;;;;;22.90;62.50;;;;;;6152075;29;1478;-85
2023/07/05 20:30:56;;;;;;;;;;;22.70;65.40;;;;;;6152762;29;1087;-85
2023/07/05 20:33:58;;;;;;;;;;;22.50;66.20;;;;;;6151788;29;2077;-85
2023/07/05 20:37:01;;;;;;;;;;;22.40;67.10;;;;;;6151357;29;1348;-85
2023/07/05 20:40:06;;;;;;;;;;;22.20;67.40;;;;;;6152319;29;1056;-86
2023/07/05 20:43:08;;;;;;;;;;;22.20;67.90;;;;;;6151454;29;1483;-84
2023/07/05 20:46:10;;;;;;;;;;;22.20;67.50;;;;;;6151456;29;1463;-85
2023/07/05 20:49:12;;;;;;;;;;;22.00;67.90;;;;;;6152284;29;1317;-85
2023/07/05 20:52:15;;;;;;;;;;;21.80;67.80;;;;;;6152274;28;1020;-85
2023/07/05 20:55:18;;;;;;;;;;;21.90;68.70;;;;;;6151698;29;1902;-84
2023/07/05 20:58:19;;;;;;;;;;;21.90;69.10;;;;;;6151194;29;1474;-85
2023/07/05 21:01:21;;;;;;;;;;;21.80;68.90;;;;;;6155430;28;1113;-86
2023/07/05 21:04:23;;;;;;;;;;;21.80;69.20;;;;;;6153952;29;1023;-85
2023/07/05 21:07:26;;;;;;;;;;;21.80;70.00;;;;;;6151172;28;1411;-85
2023/07/05 21:10:28;;;;;;;;;;;21.70;69.90;;;;;;6152375;29;1069;-86
2023/07/05 21:13:30;;;;;;;;;;;21.70;69.90;;;;;;6152972;29;1114;-86
2023/07/05 21:16:32;;;;;;;;;;;21.80;70.20;;;;;;6150491;29;1903;-85
2023/07/05 21:19:34;;;;;;;;;;;21.80;70.20;;;;;;6151776;29;1159;-85
2023/07/05 21:22:37;;;;;;;;;;;21.80;70.00;;;;;;6151433;29;1458;-87
2023/07/05 21:25:39;;;;;;;;;;;21.70;68.70;;;;;;6152057;29;1097;-87
2023/07/05 21:28:43;;;;;;;;;;;21.60;68.40;;;;;;6150124;29;1447;-88
